Time;durP1;ratioP1;P1;durP2;ratioP2;P2;SDS_P1;SDS_P2;PMS_P1;PMS_P2;Temp;Humidity;BMP_temperature;BMP_pressure;BME280_temperature;BME280_humidity;BME280_pressure;Samples;Min_cycle;Max_cycle;Signal;HPM_P1;HPM_P2
2022/07/11 00:00:27;;;;;;;5.00;2.25;;;;;;;17.60;70.31;101250.44;5068693;28;20481;-84
2022/07/11 00:02:53;;;;;;;3.05;1.65;;;;;;;17.51;70.89;101246.09;5065340;28;20393;-84
2022/07/11 00:05:20;;;;;;;4.57;1.95;;;;;;;17.51;70.65;101246.94;5069112;28;20028;-83
2022/07/11 00:07:47;;;;;;;3.42;1.73;;;;;;;17.53;70.70;101244.94;5052666;28;20082;-84
2022/07/11 00:10:13;;;;;;;3.17;1.17;;;;;;;17.54;70.26;101241.25;5032830;28;20128;-83
2022/07/11 00:12:38;;;;;;;2.92;1.00;;;;;;;17.53;69.80;101241.44;5043721;28;20455;-84
2022/07/11 00:15:05;;;;;;;1.58;0.93;;;;;;;17.51;69.32;101233.59;5067593;28;20035;-84
2022/07/11 00:17:31;;;;;;;2.55;1.25;;;;;;;17.48;69.36;101229.44;5065835;28;20435;-79
2022/07/11 00:19:58;;;;;;;2.80;1.05;;;;;;;17.46;69.23;101228.75;5033102;28;20033;-78
2022/07/11 00:22:24;;;;;;;2.13;1.65;;;;;;;17.44;68.82;101222.75;5013390;28;20029;-79
2022/07/11 00:24:50;;;;;;;3.80;2.72;;;;;;;17.30;68.84;101220.75;5052648;28;20482;-78
2022/07/11 00:27:16;;;;;;;6.18;4.38;;;;;;;17.18;69.45;101223.81;5052335;28;20082;-83
2022/07/11 00:29:42;;;;;;;8.50;4.28;;;;;;;17.12;69.43;101224.47;5054139;28;20029;-84
2022/07/11 00:32:08;;;;;;;5.88;2.45;;;;;;;17.06;69.61;101225.09;5053860;28;20032;-84
2022/07/11 00:34:34;;;;;;;4.97;1.98;;;;;;;17.01;69.64;101230.13;5037715;28;20036;-84
2022/07/11 00:37:00;;;;;;;5.97;1.90;;;;;;;16.94;69.83;101222.81;5070526;28;20613;-84
2022/07/11 00:39:25;;;;;;;3.67;1.70;;;;;;;16.93;69.53;101221.09;5054634;28;20067;-84
2022/07/11 00:41:52;;;;;;;5.72;1.70;;;;;;;16.95;69.93;101218.28;5057437;28;20075;-84
2022/07/11 00:44:18;;;;;;;3.15;1.83;;;;;;;16.93;69.55;101223.78;5041411;28;20130;-84
2022/07/11 00:46:43;;;;;;;2.42;1.35;;;;;;;16.93;69.38;101229.13;5053014;28;20501;-84
2022/07/11 00:49:09;;;;;;;7.40;1.75;;;;;;;16.92;69.48;101230.13;5040537;28;20032;-84
2022/07/11 00:51:36;;;;;;;2.63;1.83;;;;;;;16.96;69.21;101223.44;5053074;28;20045;-84
2022/07/11 00:54:02;;;;;;;4.22;1.67;;;;;;;16.98;69.11;101217.94;5053392;28;20061;-79
2022/07/11 00:56:31;;;;;;;1.58;1.33;;;;;;;16.97;69.15;101209.09;5035071;28;20040;-79
2022/07/11 00:58:59;;;;;;;1.45;1.15;;;;;;;16.97;69.12;101211.78;5017256;28;20047;-84
2022/07/11 01:01:25;;;;;;;3.25;1.42;;;;;;;16.91;69.19;101215.13;5068690;28;20087;-84
2022/07/11 01:03:51;;;;;;;4.50;1.42;;;;;;;16.88;69.08;101218.13;5053220;28;20109;-84
2022/07/11 01:06:17;;;;;;;2.85;1.20;;;;;;;16.87;68.83;101211.09;5047531;28;20041;-84
2022/07/11 01:08:44;;;;;;;3.70;1.40;;;;;;;16.82;68.93;101206.25;5051481;28;20559;-84
2022/07/11 01:11:18;;;;;;;2.47;1.10;;;;;;;16.82;68.79;101214.28;5069426;28;20079;-84
2022/07/11 01:13:45;;;;;;;2.58;1.35;;;;;;;16.76;68.85;101204.25;5036372;28;20528;-84
2022/07/11 01:16:16;;;;;;;1.92;1.08;;;;;;;16.69;68.93;101204.09;5068315;28;20095;-84
2022/07/11 01:18:44;;;;;;;3.63;1.50;;;;;;;16.60;69.18;101205.94;5050709;28;20035;-84
2022/07/11 01:21:29;;;;;;;4.53;1.50;;;;;;;16.58;69.21;101202.59;5030059;28;20439;-84
2022/07/11 01:23:57;;;;;;;1.92;1.40;;;;;;;16.54;69.09;101190.59;5043391;28;20044;-84
2022/07/11 01:26:24;;;;;;;2.28;1.55;;;;;;;16.53;69.09;101188.91;5065040;28;20033;-84
2022/07/11 01:28:51;;;;;;;2.75;1.92;;;;;;;16.54;69.09;101179.06;5049671;28;20031;-84
2022/07/11 01:31:17;;;;;;;3.15;1.90;;;;;;;16.51;68.93;101187.41;5069528;28;20107;-84
2022/07/11 01:33:42;;;;;;;4.35;1.65;;;;;;;16.41;68.98;101184.88;5045883;28;20108;-84
2022/07/11 01:36:08;;;;;;;3.05;1.23;;;;;;;16.33;69.30;101201.72;5049063;28;20040;-84
2022/07/11 01:38:35;;;;;;;2.38;1.27;;;;;;;16.24;69.18;101191.03;5047383;28;20382;-84
2022/07/11 01:41:02;;;;;;;3.08;1.48;;;;;;;16.18;69.24;101201.53;5051925;28;20041;-84
2022/07/11 01:43:28;;;;;;;4.85;1.80;;;;;;;16.04;69.30;101200.34;5067673;28;20463;-84
2022/07/11 01:45:55;;;;;;;2.22;1.45;;;;;;;15.99;69.78;101198.13;5035198;28;20040;-84
2022/07/11 01:48:21;;;;;;;1.60;1.35;;;;;;;15.94;70.10;101197.75;5051183;28;20033;-84
2022/07/11 01:50:49;;;;;;;2.15;1.30;;;;;;;15.93;70.03;101194.25;5052330;28;20136;-84
2022/07/11 01:53:15;;;;;;;2.13;1.20;;;;;;;15.92;69.97;101194.41;5068976;28;20512;-79
2022/07/11 01:55:41;;;;;;;2.10;1.45;;;;;;;15.87;69.97;101190.41;5049700;28;20634;-79
2022/07/11 01:58:08;;;;;;;1.90;1.38;;;;;;;15.79;69.98;101189.53;5052072;28;20469;-84
2022/07/11 02:00:33;;;;;;;1.70;1.60;;;;;;;15.72;70.17;101187.50;5035552;28;20127;-84
2022/07/11 02:02:59;;;;;;;2.55;1.73;;;;;;;15.70;70.30;101191.34;5065651;28;20086;-84
2022/07/11 02:05:25;;;;;;;3.38;1.77;;;;;;;15.67;70.17;101197.00;5049672;28;20035;-84
2022/07/11 02:10:36;;;;;;;4.88;1.75;;;;;;;15.52;70.47;101186.91;5034688;28;20036;-84
2022/07/11 02:13:02;;;;;;;2.20;1.45;;;;;;;15.50;70.55;101180.91;5052218;28;20033;-85
2022/07/11 02:15:29;;;;;;;1.73;1.30;;;;;;;15.52;70.65;101188.75;5032053;28;20115;-84
2022/07/11 02:17:56;;;;;;;2.28;1.75;;;;;;;15.53;70.61;101185.09;5049399;28;20530;-84
2022/07/11 02:20:23;;;;;;;5.00;1.95;;;;;;;15.49;70.48;101184.56;5047804;28;20348;-83
2022/07/11 02:22:49;;;;;;;2.10;1.60;;;;;;;15.44;70.74;101189.53;5051844;28;20060;-84
2022/07/11 02:25:15;;;;;;;2.17;1.20;;;;;;;15.44;70.91;101182.38;5048252;28;20022;-84
2022/07/11 02:27:41;;;;;;;1.27;1.17;;;;;;;15.41;70.54;101180.03;5027973;28;20029;-84
2022/07/11 02:30:08;;;;;;;1.65;1.40;;;;;;;15.37;70.74;101173.34;5065387;28;20021;-84
2022/07/11 02:32:34;;;;;;;4.95;1.60;;;;;;;15.36;70.57;101172.53;5047577;28;20488;-84
2022/07/11 02:35:00;;;;;;;0.80;0.80;;;;;;;15.45;70.78;101177.91;5046655;28;20047;-84
2022/07/11 02:37:26;;;;;;;2.08;1.38;;;;;;;15.47;70.22;101178.56;5060998;28;20409;-84
2022/07/11 02:39:52;;;;;;;1.10;0.93;;;;;;;15.46;70.18;101174.25;5049538;28;20037;-84
2022/07/11 02:42:20;;;;;;;1.92;1.45;;;;;;;15.43;70.27;101174.56;5052676;28;20100;-84
2022/07/11 02:44:46;;;;;;;1.77;1.05;;;;;;;15.45;70.12;101170.72;5048255;28;20029;-84
2022/07/11 02:47:15;;;;;;;5.07;1.27;;;;;;;15.44;69.93;101169.06;5051861;28;20025;-84
2022/07/11 02:49:41;;;;;;;2.45;1.48;;;;;;;15.36;69.92;101166.34;5056389;28;20075;-84
2022/07/11 02:52:08;;;;;;;2.53;1.67;;;;;;;15.34;70.13;101169.19;5071715;28;20536;-83
2022/07/11 02:54:34;;;;;;;2.10;1.50;;;;;;;15.35;69.74;101168.16;5036169;28;20373;-84
2022/07/11 02:57:00;;;;;;;2.85;1.48;;;;;;;15.27;69.71;101167.31;5051893;28;20037;-84
2022/07/11 02:59:27;;;;;;;5.82;1.73;;;;;;;15.15;69.75;101180.03;5064514;28;20036;-84
2022/07/11 03:01:53;;;;;;;1.58;1.40;;;;;;;15.07;70.24;101175.50;5036255;28;20378;-84
2022/07/11 03:04:19;;;;;;;1.30;1.20;;;;;;;15.03;70.44;101177.66;5065855;28;20032;-79
2022/07/11 03:06:45;;;;;;;1.45;1.20;;;;;;;15.04;70.29;101170.47;5038239;28;20145;-78
2022/07/11 03:09:11;;;;;;;1.10;0.90;;;;;;;15.04;69.85;101168.66;5069933;28;20037;-84
2022/07/11 03:11:37;;;;;;;1.20;1.10;;;;;;;15.03;69.80;101166.16;5035648;28;20047;-84
2022/07/11 03:14:02;;;;;;;1.15;1.05;;;;;;;14.99;69.70;101165.63;5036976;28;20485;-84
2022/07/11 03:16:29;;;;;;;4.30;1.00;;;;;;;14.92;69.59;101159.25;5059988;28;20100;-84
2022/07/11 03:18:56;;;;;;;0.82;0.80;;;;;;;14.91;69.72;101147.78;5070754;28;20050;-84
2022/07/11 03:21:24;;;;;;;0.82;0.65;;;;;;;14.90;69.59;101148.78;5049326;28;20119;-84
2022/07/11 03:23:49;;;;;;;0.77;0.65;;;;;;;14.91;69.55;101149.63;5065290;28;20470;-84
2022/07/11 03:26:16;;;;;;;4.93;2.13;;;;;;;14.84;69.45;101147.56;5036555;28;20033;-84
2022/07/11 03:28:42;;;;;;;2.60;0.90;;;;;;;14.76;69.77;101158.13;5049287;28;20040;-84
2022/07/11 03:31:08;;;;;;;2.47;0.90;;;;;;;14.73;69.95;101153.94;5052959;28;20117;-84
2022/07/11 03:33:33;;;;;;;2.17;1.10;;;;;;;14.71;69.90;101145.28;5035561;28;20036;-84
2022/07/11 03:35:59;;;;;;;1.73;0.93;;;;;;;14.67;69.72;101151.88;5030346;28;20551;-84
2022/07/11 03:38:25;;;;;;;4.00;0.60;;;;;;;14.57;70.11;101154.63;5051949;28;20043;-84
2022/07/11 03:40:51;;;;;;;1.02;0.57;;;;;;;14.49;70.11;101155.41;5051893;28;20468;-84
2022/07/11 03:43:17;;;;;;;6.15;1.10;;;;;;;14.46;70.05;101155.69;5070386;28;20035;-84
2022/07/11 03:45:43;;;;;;;4.97;1.10;;;;;;;14.49;69.90;101149.25;5066572;28;20454;-84
2022/07/11 03:48:10;;;;;;;2.05;1.00;;;;;;;14.52;69.82;101160.41;5035470;28;20036;-84
2022/07/11 03:50:36;;;;;;;0.80;0.75;;;;;;;14.50;69.61;101150.91;5050148;28;20044;-84
2022/07/11 03:53:02;;;;;;;4.53;0.88;;;;;;;14.42;69.77;101153.50;5037329;28;20392;-84
2022/07/11 03:55:30;;;;;;;1.95;0.70;;;;;;;14.40;69.71;101153.66;5066043;28;20471;-84
2022/07/11 03:57:55;;;;;;;2.17;1.00;;;;;;;14.42;69.74;101148.19;5051826;28;20113;-84
2022/07/11 04:00:21;;;;;;;1.75;1.45;;;;;;;14.37;69.66;101146.81;5053443;28;20066;-84
2022/07/11 04:02:48;;;;;;;2.67;1.00;;;;;;;14.35;69.94;101140.00;5047560;28;20033;-84
2022/07/11 04:05:14;;;;;;;1.42;1.33;;;;;;;14.36;70.05;101141.66;5049964;28;20047;-84
2022/07/11 04:07:41;;;;;;;1.13;1.00;;;;;;;14.31;70.22;101142.13;5048409;28;20043;-84
2022/07/11 04:10:08;;;;;;;1.25;0.93;;;;;;;14.26;70.19;101142.56;5053522;28;20028;-84
2022/07/11 04:12:34;;;;;;;1.27;1.17;;;;;;;14.18;70.62;101147.81;5069923;28;20025;-84
2022/07/11 04:15:01;;;;;;;2.95;0.95;;;;;;;14.10;71.13;101142.41;5069997;28;20039;-84
2022/07/11 04:17:27;;;;;;;1.08;0.70;;;;;;;14.03;71.54;101142.16;5053119;28;20053;-84
2022/07/11 04:19:54;;;;;;;0.73;0.70;;;;;;;14.06;71.45;101144.53;5051707;28;20162;-84
2022/07/11 04:22:20;;;;;;;0.60;0.60;;;;;;;14.05;71.31;101134.06;5070363;28;20032;-83
2022/07/11 04:24:46;;;;;;;0.70;0.70;;;;;;;14.01;71.31;101131.66;5052226;28;20059;-84
2022/07/11 04:27:11;;;;;;;0.60;0.60;;;;;;;14.04;71.39;101132.38;5069108;28;20040;-84
2022/07/11 04:29:37;;;;;;;3.70;0.60;;;;;;;14.00;71.35;101134.47;5049621;28;20024;-84
2022/07/11 04:32:03;;;;;;;0.90;0.90;;;;;;;13.90;71.47;101134.56;5067041;28;20036;-84
2022/07/11 04:34:29;;;;;;;2.85;0.80;;;;;;;13.81;71.92;101140.78;5069366;28;20504;-84
2022/07/11 04:36:55;;;;;;;0.90;0.75;;;;;;;13.80;72.28;101131.97;5053634;28;20086;-84
2022/07/11 04:39:21;;;;;;;0.82;0.80;;;;;;;13.84;72.46;101129.84;5069231;28;20036;-83
2022/07/11 04:41:47;;;;;;;1.10;1.00;;;;;;;13.87;71.81;101130.38;5050893;28;20082;-84
2022/07/11 04:44:12;;;;;;;1.17;0.75;;;;;;;13.89;71.74;101123.09;5048056;28;20047;-84
2022/07/11 04:46:38;;;;;;;1.23;0.90;;;;;;;13.91;72.12;101119.44;4995712;28;20045;-84
2022/07/11 04:49:04;;;;;;;3.50;1.10;;;;;;;13.91;71.85;101116.78;5068622;28;20029;-84
2022/07/11 04:51:30;;;;;;;7.43;1.42;;;;;;;13.81;71.90;101125.66;5049319;28;20472;-84
2022/07/11 04:53:56;;;;;;;2.28;1.00;;;;;;;13.67;72.39;101131.47;5052208;28;20512;-84
2022/07/11 04:56:21;;;;;;;1.77;1.08;;;;;;;13.57;73.01;101136.84;5055316;28;20040;-84
2022/07/11 04:58:47;;;;;;;5.75;1.35;;;;;;;13.52;72.94;101132.78;5060046;28;20477;-84
2022/07/11 05:01:13;;;;;;;7.53;1.00;;;;;;;13.51;73.51;101136.44;5034178;28;20037;-84
2022/07/11 05:03:39;;;;;;;3.60;1.05;;;;;;;13.48;73.12;101136.69;5051775;28;20029;-84
2022/07/11 05:06:06;;;;;;;2.67;1.10;;;;;;;13.27;73.67;101131.59;5035644;28;20033;-84
2022/07/11 05:08:36;;;;;;;2.15;1.27;;;;;;;13.11;74.46;101135.69;5066528;28;20480;-84
2022/07/11 05:11:03;;;;;;;4.55;1.40;;;;;;;13.01;75.11;101135.72;5069350;28;20432;-84
2022/07/11 05:13:29;;;;;;;4.78;1.50;;;;;;;12.96;75.86;101123.88;5052748;28;20052;-84
2022/07/11 05:15:55;;;;;;;2.25;1.40;;;;;;;13.01;76.33;101124.28;5066119;28;20041;-84
2022/07/11 05:18:20;;;;;;;1.80;1.20;;;;;;;13.16;76.41;101124.66;5066606;28;20099;-84
2022/07/11 05:20:48;;;;;;;3.10;1.60;;;;;;;13.32;76.09;101120.53;5068843;28;20485;-84
2022/07/11 05:23:14;;;;;;;1.50;1.40;;;;;;;13.45;76.06;101125.53;5072685;28;20032;-84
2022/07/11 05:25:40;;;;;;;1.90;1.30;;;;;;;13.51;75.84;101117.00;5056942;28;20032;-84
2022/07/11 05:28:06;;;;;;;2.95;1.20;;;;;;;13.48;76.14;101117.25;5074184;28;20032;-85
2022/07/11 05:30:32;;;;;;;6.88;1.30;;;;;;;13.39;76.87;101114.50;5055494;28;20040;-84
2022/07/11 05:32:58;;;;;;;1.45;1.10;;;;;;;13.31;77.29;101110.91;5039017;28;20035;-84
2022/07/11 05:35:25;;;;;;;3.97;1.13;;;;;;;13.32;77.43;101110.78;5044692;28;20078;-84
2022/07/11 05:37:51;;;;;;;4.43;1.10;;;;;;;13.50;77.57;101108.22;5071091;28;20036;-84
2022/07/11 05:40:17;;;;;;;1.63;1.10;;;;;;;13.64;77.39;101112.19;5050882;28;20485;-84
2022/07/11 05:42:43;;;;;;;4.10;0.95;;;;;;;13.75;77.38;101113.81;5040522;28;20066;-84
2022/07/11 05:45:09;;;;;;;7.50;1.23;;;;;;;13.93;77.05;101113.00;5037708;28;20548;-84
2022/07/11 05:47:35;;;;;;;1.27;1.15;;;;;;;14.05;76.73;101110.13;5038837;28;20028;-84
2022/07/11 05:50:01;;;;;;;1.50;1.00;;;;;;;14.13;76.42;101112.84;5048792;28;20457;-84
2022/07/11 05:52:27;;;;;;;2.22;1.13;;;;;;;14.19;76.70;101122.06;5052514;28;20088;-84
2022/07/11 05:54:52;;;;;;;3.42;1.40;;;;;;;14.23;76.80;101124.25;5054176;28;20028;-84
2022/07/11 05:57:18;;;;;;;1.58;1.20;;;;;;;14.28;77.11;101115.84;5034153;28;20549;-84
2022/07/11 05:59:45;;;;;;;2.35;1.30;;;;;;;14.31;76.93;101117.34;5056420;28;20033;-84
2022/07/11 06:02:11;;;;;;;4.88;1.30;;;;;;;14.33;76.92;101121.53;5053583;28;20125;-80
2022/07/11 06:04:37;;;;;;;1.20;1.10;;;;;;;14.34;77.39;101125.00;5071685;28;20032;-79
2022/07/11 06:07:04;;;;;;;1.23;1.00;;;;;;;14.33;77.47;101126.00;5054214;28;20024;-79
2022/07/11 06:09:30;;;;;;;4.97;1.30;;;;;;;14.35;78.04;101129.38;5034131;28;20445;-84
2022/07/11 06:11:57;;;;;;;2.88;1.20;;;;;;;14.40;78.21;101124.41;5048090;28;20120;-84
2022/07/11 06:14:24;;;;;;;2.20;1.50;;;;;;;14.51;78.12;101124.16;5054202;28;20025;-84
2022/07/11 06:16:50;;;;;;;3.75;1.75;;;;;;;14.63;78.30;101116.78;5055179;28;20028;-84
2022/07/11 06:19:16;;;;;;;3.63;1.83;;;;;;;14.71;77.98;101124.00;5037049;28;20102;-84
2022/07/11 06:21:42;;;;;;;1.77;1.50;;;;;;;14.79;77.78;101123.25;5053730;28;20041;-84
2022/07/11 06:24:08;;;;;;;2.88;1.80;;;;;;;14.87;77.90;101120.63;5071172;28;20024;-84
2022/07/11 06:26:34;;;;;;;1.90;1.73;;;;;;;14.96;77.74;101120.69;5071592;28;20039;-84
2022/07/11 06:29:00;;;;;;;3.83;2.03;;;;;;;15.01;77.69;101123.72;5055311;28;20028;-84
2022/07/11 06:31:26;;;;;;;5.22;2.22;;;;;;;15.09;77.42;101122.94;5054645;28;20032;-84
2022/07/11 06:33:54;;;;;;;2.22;2.03;;;;;;;15.19;77.36;101123.66;5066086;28;20048;-84
2022/07/11 06:36:24;;;;;;;3.95;2.10;;;;;;;15.27;76.98;101117.56;5049549;28;20465;-84
2022/07/11 06:38:50;;;;;;;2.90;1.80;;;;;;;15.36;76.88;101121.06;5049903;28;20068;-84
2022/07/11 06:41:17;;;;;;;3.55;1.80;;;;;;;15.48;76.65;101118.97;5053915;28;20560;-85
2022/07/11 06:43:43;;;;;;;3.17;1.98;;;;;;;15.56;76.50;101115.50;5054992;28;20075;-84
2022/07/11 06:46:08;;;;;;;2.13;2.00;;;;;;;15.65;76.37;101111.88;5070564;28;20056;-84
2022/07/11 06:48:35;;;;;;;4.05;1.85;;;;;;;15.73;76.13;101101.25;5053730;28;20024;-84
2022/07/11 06:51:01;;;;;;;4.65;1.88;;;;;;;15.83;75.97;101106.41;5054550;28;20055;-84
2022/07/11 06:53:26;;;;;;;2.47;1.83;;;;;;;15.90;75.61;101098.59;5036939;28;20032;-84
2022/07/11 06:55:52;;;;;;;2.00;1.60;;;;;;;15.99;75.59;101102.13;5049259;28;20119;-84
2022/07/11 06:58:33;;;;;;;5.18;1.88;;;;;;;16.07;75.32;101093.34;5036052;28;20390;-84
2022/07/11 07:01:01;;;;;;;4.45;1.73;;;;;;;16.16;75.04;101089.69;5067270;28;20041;-84
2022/07/11 07:03:28;;;;;;;1.95;1.63;;;;;;;16.24;74.48;101084.31;5069048;28;20495;-84
2022/07/11 07:05:55;;;;;;;6.13;2.08;;;;;;;16.31;74.16;101086.34;5037082;28;20044;-84
2022/07/11 07:08:25;;;;;;;5.60;2.53;;;;;;;16.41;73.84;101094.16;5040661;28;20393;-83
2022/07/11 07:10:52;;;;;;;3.30;1.73;;;;;;;16.51;73.70;101096.69;5067257;28;20129;-84
2022/07/11 07:13:20;;;;;;;3.33;1.63;;;;;;;16.57;73.81;101099.50;5071192;28;20063;-84
2022/07/11 07:15:47;;;;;;;4.30;2.13;;;;;;;16.61;73.68;101103.50;5053411;28;20496;-84
2022/07/11 07:18:13;;;;;;;3.60;1.80;;;;;;;16.70;73.58;101103.50;5037063;28;20103;-84
2022/07/11 07:20:39;;;;;;;2.70;1.52;;;;;;;16.83;73.32;101111.81;5048804;28;20127;-84
2022/07/11 07:23:05;;;;;;;2.28;2.08;;;;;;;16.92;73.43;101115.31;5060136;28;20025;-84
2022/07/11 07:25:31;;;;;;;2.17;1.92;;;;;;;16.90;73.89;101114.63;5049646;28;20037;-84
2022/07/11 07:27:56;;;;;;;4.03;2.03;;;;;;;16.97;74.18;101112.13;5069364;28;20036;-84
2022/07/11 07:30:22;;;;;;;2.55;1.70;;;;;;;17.13;74.30;101107.78;5051024;28;20035;-83
2022/07/11 07:32:48;;;;;;;3.45;1.90;;;;;;;17.34;73.74;101107.22;5052576;28;20032;-84
2022/07/11 07:35:13;;;;;;;2.60;1.60;;;;;;;17.61;73.33;101113.13;5052232;28;20028;-84
2022/07/11 07:37:39;;;;;;;3.35;1.92;;;;;;;17.86;72.19;101112.97;5051797;28;20037;-84
2022/07/11 07:40:06;;;;;;;1.90;1.55;;;;;;;18.05;71.46;101109.00;5048984;28;20536;-84
2022/07/11 07:42:31;;;;;;;7.70;1.75;;;;;;;18.15;70.79;101118.66;5037871;28;20404;-84
2022/07/11 07:44:57;;;;;;;2.22;1.35;;;;;;;18.26;70.34;101109.38;5062636;28;20044;-84
2022/07/11 07:47:23;;;;;;;1.95;1.85;;;;;;;18.35;70.17;101116.34;5049235;28;20103;-84
2022/07/11 07:49:49;;;;;;;2.65;1.73;;;;;;;18.40;69.82;101113.97;5064879;28;20493;-84
2022/07/11 07:52:15;;;;;;;8.05;1.52;;;;;;;18.47;69.40;101112.22;5049630;28;20032;-84
2022/07/11 07:54:41;;;;;;;4.68;1.50;;;;;;;18.54;69.20;101106.97;5052769;28;20580;-84
2022/07/11 07:57:09;;;;;;;2.08;1.52;;;;;;;18.61;69.14;101112.44;5053390;28;20028;-83
2022/07/11 07:59:34;;;;;;;2.97;1.60;;;;;;;18.65;68.84;101119.09;5032634;28;20029;-84
2022/07/11 08:02:00;;;;;;;2.65;1.23;;;;;;;18.71;68.52;101117.56;5050884;28;20713;-83
2022/07/11 08:04:26;;;;;;;5.53;1.48;;;;;;;18.81;68.65;101118.09;5053409;28;20044;-83
2022/07/11 08:06:52;;;;;;;1.75;1.50;;;;;;;18.85;68.45;101113.22;5033663;28;20099;-84
2022/07/11 08:09:18;;;;;;;4.07;1.70;;;;;;;18.93;68.20;101117.66;5036702;28;20424;-84
2022/07/11 08:11:43;;;;;;;2.45;1.80;;;;;;;19.00;68.04;101112.41;5068920;28;20131;-83
2022/07/11 08:14:09;;;;;;;1.48;1.38;;;;;;;19.02;68.02;101100.47;5071038;28;20051;-83
2022/07/11 08:16:36;;;;;;;3.38;1.63;;;;;;;19.05;67.75;101104.63;5051793;28;20028;-83
2022/07/11 08:19:04;;;;;;;5.50;1.63;;;;;;;19.14;67.87;101110.78;5062346;28;20119;-83
2022/07/11 08:21:30;;;;;;;1.95;1.40;;;;;;;19.26;67.58;101108.44;5053329;28;20040;-84
2022/07/11 08:23:57;;;;;;;3.15;1.30;;;;;;;19.35;67.44;101112.69;5066803;28;20021;-83
2022/07/11 08:26:23;;;;;;;3.30;1.60;;;;;;;19.44;67.18;101113.44;5064977;28;20033;-82
2022/07/11 08:28:51;;;;;;;3.15;1.70;;;;;;;19.50;66.76;101110.00;5036018;28;20059;-84
2022/07/11 08:31:17;;;;;;;1.50;1.40;;;;;;;19.54;66.66;101108.59;5069489;28;20075;-84
2022/07/11 08:33:42;;;;;;;1.77;1.40;;;;;;;19.61;66.26;101105.16;5033002;28;20036;-83
2022/07/11 08:36:08;;;;;;;2.72;1.60;;;;;;;19.70;66.06;101104.06;5046867;28;20037;-83
2022/07/11 08:38:34;;;;;;;2.65;1.60;;;;;;;19.79;66.17;101105.59;5070751;28;20485;-84
2022/07/11 08:41:00;;;;;;;3.78;1.23;;;;;;;19.88;66.13;101108.13;5065714;28;20039;-83
2022/07/11 08:43:29;;;;;;;2.53;1.42;;;;;;;19.92;66.12;101114.81;5069222;28;20539;-82
2022/07/11 08:45:56;;;;;;;2.45;1.50;;;;;;;19.99;66.24;101109.50;5051888;28;20039;-84
2022/07/11 08:48:23;;;;;;;1.70;1.55;;;;;;;20.06;66.25;101108.59;5034085;28;20389;-82
2022/07/11 08:50:50;;;;;;;2.50;1.83;;;;;;;20.09;65.92;101096.63;5049287;28;21229;-83
2022/07/11 08:53:16;;;;;;;2.72;1.67;;;;;;;20.07;65.46;101093.28;5048596;28;20036;-83
2022/07/11 08:55:42;;;;;;;3.97;1.60;;;;;;;20.05;65.24;101082.75;5050783;28;20133;-83
2022/07/11 08:58:09;;;;;;;3.47;1.50;;;;;;;20.09;65.15;101077.84;5070845;28;20539;-83
2022/07/11 09:00:36;;;;;;;5.70;1.30;;;;;;;20.16;65.13;101075.22;5071625;28;20041;-83
2022/07/11 09:03:03;;;;;;;2.55;1.10;;;;;;;20.27;64.75;101068.50;5055368;28;20032;-83
2022/07/11 09:05:31;;;;;;;4.07;1.30;;;;;;;20.40;64.65;101073.97;5054302;28;20036;-81
2022/07/11 09:07:57;;;;;;;2.50;1.25;;;;;;;20.48;64.27;101072.97;5072158;28;20047;-83
2022/07/11 09:10:24;;;;;;;2.50;1.20;;;;;;;20.52;64.17;101076.97;5061444;28;20025;-83
2022/07/11 09:13:06;;;;;;;1.40;1.10;;;;;;;20.64;64.17;101063.00;5068291;28;20032;-83
2022/07/11 09:15:33;;;;;;;3.08;1.23;;;;;;;20.67;64.32;101043.81;5055197;28;20036;-83
2022/07/11 09:17:59;;;;;;;4.40;1.52;;;;;;;20.76;64.05;101039.09;5064354;28;20550;-83
2022/07/11 09:20:25;;;;;;;3.35;1.45;;;;;;;20.95;64.00;101032.19;5071479;28;20039;-83
2022/07/11 09:25:42;;;;;;;2.40;1.70;;;;;;;21.25;62.54;101021.16;5046512;28;20361;-83
2022/07/11 09:28:08;;;;;;;2.25;1.25;;;;;;;21.32;62.51;101015.81;5034508;28;20032;-83
2022/07/11 09:30:39;;;;;;;2.38;1.10;;;;;;;21.32;62.34;101003.16;5057104;28;20028;-82
2022/07/11 09:33:09;;;;;;;3.42;1.60;;;;;;;21.25;62.33;100999.66;5054480;28;20499;-83
2022/07/11 09:35:45;;;;;;;3.65;1.08;;;;;;;21.03;62.42;101005.16;5068884;28;20119;-82
2022/07/11 09:38:15;;;;;;;4.13;1.95;;;;;;;20.94;62.47;101006.38;5038051;28;20472;-83
2022/07/11 09:40:46;;;;;;;1.85;1.27;;;;;;;20.85;62.63;101007.53;5067355;28;20480;-83
2022/07/11 09:43:12;;;;;;;3.30;1.10;;;;;;;20.89;62.86;101009.63;5048216;28;20124;-84
2022/07/11 09:45:39;;;;;;;2.13;0.90;;;;;;;20.98;62.59;101001.41;5034094;28;20055;-83
2022/07/11 09:48:10;;;;;;;2.78;1.02;;;;;;;21.06;62.61;101003.91;5060297;28;20029;-83
2022/07/11 09:50:39;;;;;;;5.30;1.00;;;;;;;21.10;62.60;101005.19;5064243;28;20041;-82
2022/07/11 09:53:08;;;;;;;2.55;1.38;;;;;;;21.16;62.34;101004.38;5036117;28;20044;-82
2022/07/11 09:55:44;;;;;;;1.77;1.02;;;;;;;21.23;62.44;100998.19;5019826;28;20432;-81
2022/07/11 09:58:13;;;;;;;1.20;0.75;;;;;;;21.19;62.02;100995.06;5031635;28;20743;-83
2022/07/11 10:00:40;;;;;;;0.93;0.80;;;;;;;21.14;61.93;100987.63;5051248;28;20037;-83
2022/07/11 10:03:08;;;;;;;1.15;0.70;;;;;;;21.07;61.63;100992.16;5067402;28;20137;-82
2022/07/11 10:05:34;;;;;;;1.60;0.70;;;;;;;21.05;61.65;100999.59;5030940;28;20647;-83
2022/07/11 10:08:01;;;;;;;3.78;1.13;;;;;;;21.05;61.67;100996.91;5032083;28;20443;-82
2022/07/11 10:10:29;;;;;;;3.90;1.13;;;;;;;21.12;61.87;100999.63;5062646;28;20074;-82
2022/07/11 10:12:55;;;;;;;7.13;1.08;;;;;;;21.27;61.74;100996.75;5046391;28;20052;-83
2022/07/11 10:15:34;;;;;;;3.47;0.90;;;;;;;21.40;61.56;100991.44;5035341;28;20079;-83
2022/07/11 10:18:40;;;;;;;2.75;0.90;;;;;;;21.42;61.78;100985.84;5068858;28;20127;-83
2022/07/11 10:21:14;;;;;;;3.45;0.95;;;;;;;21.47;61.78;100986.03;5051223;28;20041;-83
2022/07/11 10:23:44;;;;;;;7.68;1.02;;;;;;;21.50;61.94;100982.94;5068436;28;20036;-83
2022/07/11 10:26:41;;;;;;;5.18;0.85;;;;;;;21.51;61.47;100991.84;5052700;28;20371;-83
2022/07/11 10:29:25;;;;;;;3.40;0.80;;;;;;;21.53;61.73;100981.72;5069922;28;20029;-83
2022/07/11 10:32:11;;;;;;;2.53;0.80;;;;;;;21.49;61.50;100969.69;5053286;28;20544;-83
2022/07/11 10:34:37;;;;;;;;;;;;;;;21.38;62.47;100969.28;5055444;28;20132;-83
2022/07/11 10:37:04;;;;;;;;;;;;;;;21.32;62.58;100964.72;5037185;28;19912;-83
2022/07/11 10:39:32;;;;;;;3.03;0.98;;;;;;;21.41;62.34;100965.34;5047682;28;20434;-82
2022/07/11 10:42:00;;;;;;;3.35;1.00;;;;;;;21.42;62.68;100961.63;5069481;28;20703;-83
2022/07/11 10:44:46;;;;;;;1.77;1.08;;;;;;;21.38;62.51;100963.91;5067955;28;20032;-82
2022/07/11 10:47:35;;;;;;;1.35;1.10;;;;;;;21.39;62.29;100970.13;5068666;28;20058;-83
2022/07/11 10:50:07;;;;;;;3.15;0.93;;;;;;;21.42;62.18;100964.34;5067123;28;20048;-83
2022/07/11 10:52:36;;;;;;;2.08;0.90;;;;;;;21.48;61.87;100963.50;5034014;28;20040;-82
2022/07/11 10:55:31;;;;;;;2.67;1.08;;;;;;;21.59;61.36;100959.38;5052735;28;20132;-83
2022/07/11 10:58:19;;;;;;;0.93;0.80;;;;;;;21.75;60.39;100957.31;5063600;28;20132;-83
2022/07/11 11:00:45;;;;;;;1.63;0.90;;;;;;;21.95;61.28;100965.41;5050672;28;20027;-82
2022/07/11 11:03:11;;;;;;;2.33;1.42;;;;;;;22.14;60.23;100962.91;5057124;28;20028;-82
2022/07/11 11:05:44;;;;;;;4.15;1.00;;;;;;;22.16;59.04;100958.97;5069679;28;20028;-83
2022/07/11 11:08:32;;;;;;;2.03;0.80;;;;;;;22.12;57.90;100943.47;5069294;28;20040;-82
2022/07/11 11:10:59;;;;;;;3.10;1.00;;;;;;;22.06;59.14;100945.94;5053766;28;20037;-83
2022/07/11 11:13:26;;;;;;;7.85;1.25;;;;;;;21.99;58.43;100942.44;5052491;28;20115;-82
2022/07/11 11:16:01;;;;;;;3.63;1.15;;;;;;;22.00;58.65;100941.41;5051665;28;20032;-83
2022/07/11 11:18:34;;;;;;;1.30;1.00;;;;;;;22.04;59.19;100941.81;5052378;28;20040;-82
2022/07/11 11:21:02;;;;;;;1.77;0.80;;;;;;;22.16;59.32;100952.75;5069432;28;20400;-83
2022/07/11 11:23:30;;;;;;;4.10;0.80;;;;;;;22.31;59.33;100953.34;5012164;28;20055;-82
2022/07/11 11:26:07;;;;;;;2.50;0.93;;;;;;;22.64;59.44;100935.47;5067883;28;20044;-83
2022/07/11 11:28:33;;;;;;;2.75;0.90;;;;;;;22.86;58.19;100935.19;5036179;28;20473;-78
2022/07/11 11:31:02;;;;;;;2.40;0.70;;;;;;;23.04;58.11;100933.63;5069281;28;20044;-78
2022/07/11 11:33:31;;;;;;;4.65;0.80;;;;;;;23.04;57.29;100934.47;5068839;28;20473;-83